Time;durP1;ratioP1;P1;durP2;ratioP2;P2;SDS_P1;SDS_P2;PMS_P1;PMS_P2;Temp;Humidity;BMP_temperature;BMP_pressure;BME280_temperature;BME280_humidity;BME280_pressure;Samples;Min_cycle;Max_cycle;Signal;HPM_P1;HPM_P2
2022/10/19 00:01:22;;;;;;;;;;;;;;;20.00;70.12;101901.30;2337608;76;50375;-75
2022/10/19 00:04:24;;;;;;;;;;;;;;;20.00;70.10;101899.96;2337407;76;50384;-75
2022/10/19 00:07:25;;;;;;;;;;;;;;;19.99;70.10;101901.81;2312760;75;49589;-75
2022/10/19 00:10:27;;;;;;;;;;;;;;;20.00;70.05;101905.33;2317434;74;50391;-75
2022/10/19 00:13:28;;;;;;;;;;;;;;;19.99;70.05;101913.91;2355153;75;50775;-75
2022/10/19 00:16:31;;;;;;;;;;;;;;;19.99;70.04;101911.72;2311176;76;51558;-74
2022/10/19 00:19:33;;;;;;;;;;;;;;;19.98;70.04;101912.20;2312311;76;52811;-73
2022/10/19 00:22:35;;;;;;;;;;;;;;;19.98;70.07;101910.02;2337645;75;52108;-73
2022/10/19 00:25:37;;;;;;;;;;;;;;;20.00;69.98;101908.02;2311184;76;51485;-73
2022/10/19 00:28:38;;;;;;;;;;;;;;;20.00;69.99;101906.67;2311209;76;51499;-73
2022/10/19 00:31:40;;;;;;;;;;;;;;;20.00;69.88;101910.70;2322163;76;51050;-73
2022/10/19 00:34:42;;;;;;;;;;;;;;;19.99;69.95;101909.04;2330375;76;50844;-73
2022/10/19 00:37:43;;;;;;;;;;;;;;;19.99;69.96;101913.06;2342822;74;51540;-73
2022/10/19 00:40:45;;;;;;;;;;;;;;;19.97;69.97;101902.98;2349172;74;51471;-74
2022/10/19 00:43:51;;;;;;;;;;;;;;;19.99;69.90;101911.72;2393283;74;51008;-73
2022/10/19 00:46:52;;;;;;;;;;;;;;;19.98;69.95;101908.67;2393830;73;50248;-74
2022/10/19 00:49:54;;;;;;;;;;;;;;;19.99;69.94;101909.04;2393782;74;51505;-73
2022/10/19 00:52:55;;;;;;;;;;;;;;;19.98;69.89;101908.67;2378813;74;51464;-74
2022/10/19 00:55:57;;;;;;;;;;;;;;;19.98;69.84;101904.14;2393492;74;49552;-73
2022/10/19 00:58:58;;;;;;;;;;;;;;;19.98;69.83;101906.83;2378748;73;50396;-73
2022/10/19 01:02:00;;;;;;;;;;;;;;;20.00;69.77;101914.73;2378873;75;50717;-73
2022/10/19 01:05:02;;;;;;;;;;;;;;;19.98;69.81;101918.08;2378635;74;50366;-73
2022/10/19 01:08:03;;;;;;;;;;;;;;;19.99;69.86;101918.44;2384947;73;49465;-73
2022/10/19 01:11:13;;;;;;;;;;;;;;;20.00;69.73;101915.58;2306819;76;50517;-72
2022/10/19 01:14:22;;;;;;;;;;;;;;;20.01;69.72;101908.34;2332463;75;51113;-72
2022/10/19 01:17:28;;;;;;;;;;;;;;;20.04;69.75;101909.87;2332911;75;51688;-72
2022/10/19 01:20:41;;;;;;;;;;;;;;;20.06;69.74;101904.67;2319340;74;51912;-72
2022/10/19 01:24:02;;;;;;;;;;;;;;;20.06;70.04;101895.78;2332728;76;50731;-72
2022/10/19 01:27:21;;;;;;;;;;;;;;;20.04;69.62;101890.59;2332389;75;50805;-72
2022/10/19 01:30:36;;;;;;;;;;;;;;;20.01;69.69;101888.20;2332707;74;50406;-73
2022/10/19 01:33:39;;;;;;;;;;;;;;;19.99;69.71;101891.58;2320040;76;52931;-75
2022/10/19 01:36:41;;;;;;;;;;;;;;;19.99;69.67;101888.89;2343703;74;51477;-74
2022/10/19 01:39:44;;;;;;;;;;;;;;;19.97;69.65;101888.20;2381170;74;51472;-74
2022/10/19 01:42:50;;;;;;;;;;;;;;;19.96;69.70;101879.78;2378919;75;50421;-74
2022/10/19 01:45:52;;;;;;;;;;;;;;;19.98;69.82;101877.78;2353037;75;51050;-74
2022/10/19 01:48:54;;;;;;;;;;;;;;;20.01;69.68;101880.14;2378914;73;50663;-73
2022/10/19 01:51:57;;;;;;;;;;;;;;;20.00;69.60;101878.47;2378786;75;50314;-74
2022/10/19 01:54:59;;;;;;;;;;;;;;;19.98;69.59;101884.50;2353141;75;52555;-74
2022/10/19 01:58:05;;;;;;;;;;;;;;;20.01;69.87;101881.48;2378854;73;50745;-74
2022/10/19 02:01:06;;;;;;;;;;;;;;;20.05;69.96;101886.05;2378931;74;51518;-74
2022/10/19 02:04:08;;;;;;;;;;;;;;;20.06;69.81;101879.66;2378668;74;51565;-74
2022/10/19 02:07:10;;;;;;;;;;;;;;;20.07;69.96;101882.19;2372849;73;51575;-74
2022/10/19 02:10:11;;;;;;;;;;;;;;;20.07;69.86;101874.13;2349154;74;50963;-74
2022/10/19 02:13:13;;;;;;;;;;;;;;;20.07;70.08;101871.45;2391262;74;50368;-74
2022/10/19 02:16:17;;;;;;;;;;;;;;;20.07;69.94;101875.48;2391085;74;51448;-74
2022/10/19 02:19:18;;;;;;;;;;;;;;;20.05;69.98;101871.27;2391174;74;55240;-74
2022/10/19 02:22:20;;;;;;;;;;;;;;;20.06;69.87;101869.74;2345188;74;51002;-74
2022/10/19 02:25:22;;;;;;;;;;;;;;;20.07;69.90;101871.45;2378751;75;50486;-74
2022/10/19 02:28:24;;;;;;;;;;;;;;;20.06;70.31;101868.41;2378900;75;50482;-75
2022/10/19 02:31:25;;;;;;;;;;;;;;;20.06;70.32;101869.74;2378934;74;50336;-75
2022/10/19 02:34:27;;;;;;;;;;;;;;;20.07;70.16;101869.27;2353085;75;50069;-75
2022/10/19 02:37:29;;;;;;;;;;;;;;;20.08;70.10;101876.31;2377608;73;50695;-74
2022/10/19 02:40:32;;;;;;;;;;;;;;;20.07;69.75;101874.64;2378939;75;51519;-74
2022/10/19 02:43:34;;;;;;;;;;;;;;;20.02;69.59;101873.78;2377064;74;51641;-74
2022/10/19 02:46:37;;;;;;;;;;;;;;;20.04;69.32;101875.81;2353301;75;51928;-74
2022/10/19 02:49:39;;;;;;;;;;;;;;;20.07;69.79;101873.30;2377901;73;50666;-74
2022/10/19 02:52:40;;;;;;;;;;;;;;;20.06;70.12;101871.09;2378906;74;51559;-74
2022/10/19 02:55:42;;;;;;;;;;;;;;;20.07;70.01;101870.61;2378816;75;50329;-74
2022/10/19 02:58:43;;;;;;;;;;;;;;;20.06;70.15;101879.15;2353210;74;50075;-74
2022/10/19 03:01:45;;;;;;;;;;;;;;;20.07;69.89;101880.85;2351908;74;51573;-74
2022/10/19 03:04:47;;;;;;;;;;;;;;;20.04;69.63;101866.41;2378653;75;51533;-74
2022/10/19 03:07:48;;;;;;;;;;;;;;;20.01;69.10;101862.67;2351914;75;51535;-75
2022/10/19 03:10:50;;;;;;;;;;;;;;;19.97;69.06;101870.23;2324383;74;51012;-74
2022/10/19 03:13:51;;;;;;;;;;;;;;;20.01;69.15;101873.42;2352469;74;51511;-74
2022/10/19 03:16:53;;;;;;;;;;;;;;;20.02;69.33;101869.75;2336548;75;50666;-74
2022/10/19 03:19:55;;;;;;;;;;;;;;;20.04;69.64;101878.97;2363945;75;51530;-74
2022/10/19 03:22:56;;;;;;;;;;;;;;;19.99;68.99;101877.63;2353100;75;51007;-74
2022/10/19 03:25:58;;;;;;;;;;;;;;;19.97;68.76;101886.86;2351785;75;51555;-74
2022/10/19 03:28:59;;;;;;;;;;;;;;;19.99;69.25;101887.55;2378895;73;51563;-74
2022/10/19 03:32:01;;;;;;;;;;;;;;;20.02;69.00;101888.56;2378928;75;51428;-74
2022/10/19 03:35:02;;;;;;;;;;;;;;;20.03;69.81;101886.70;2353007;75;49622;-74
2022/10/19 03:38:04;;;;;;;;;;;;;;;20.03;69.22;101897.45;2378759;73;50292;-74
2022/10/19 03:41:06;;;;;;;;;;;;;;;20.05;69.14;101892.25;2351667;75;50394;-74
2022/10/19 03:44:08;;;;;;;;;;;;;;;20.05;69.06;101904.85;2378641;75;51505;-74
2022/10/19 03:47:09;;;;;;;;;;;;;;;20.01;68.99;101897.60;2339400;75;51003;-73
2022/10/19 03:50:13;;;;;;;;;;;;;;;20.02;69.16;101899.30;2343850;75;51508;-75
2022/10/19 03:53:14;;;;;;;;;;;;;;;20.02;69.23;101903.33;2341731;75;50263;-72
2022/10/19 03:56:17;;;;;;;;;;;;;;;20.01;69.85;101907.87;2364176;75;50361;-74
2022/10/19 03:59:19;;;;;;;;;;;;;;;20.03;69.76;101892.91;2340402;75;51173;-73
2022/10/19 04:02:20;;;;;;;;;;;;;;;20.04;69.90;101904.50;2341561;75;50431;-74
2022/10/19 04:05:22;;;;;;;;;;;;;;;20.04;69.70;101904.02;2364169;75;50716;-73
2022/10/19 04:08:24;;;;;;;;;;;;;;;20.03;69.56;101903.66;2340811;75;51443;-73
2022/10/19 04:11:27;;;;;;;;;;;;;;;20.04;69.81;101915.24;2314477;75;51001;-73
2022/10/19 04:14:28;;;;;;;;;;;;;;;20.01;70.17;101919.09;2363781;75;51508;-73
2022/10/19 04:17:30;;;;;;;;;;;;;;;20.01;69.94;101919.09;2350875;74;51649;-73
2022/10/19 04:20:32;;;;;;;;;;;;;;;20.00;70.10;101906.67;2372017;74;50334;-73
2022/10/19 04:23:34;;;;;;;;;;;;;;;20.00;69.90;101915.58;2352920;75;50125;-73
2022/10/19 04:26:40;;;;;;;;;;;;;;;20.00;69.78;101918.77;2353193;75;50687;-73
2022/10/19 04:29:42;;;;;;;;;;;;;;;20.01;69.91;101921.78;2378751;75;50750;-73
2022/10/19 04:32:43;;;;;;;;;;;;;;;20.00;69.87;101910.70;2378827;75;51468;-73
2022/10/19 04:35:45;;;;;;;;;;;;;;;20.00;69.78;101916.91;2378726;75;51487;-73
2022/10/19 04:38:47;;;;;;;;;;;;;;;20.00;69.83;101919.60;2378830;75;51513;-73
2022/10/19 04:41:48;;;;;;;;;;;;;;;20.01;69.80;101917.75;2378734;75;51498;-73
2022/10/19 04:44:50;;;;;;;;;;;;;;;20.01;69.94;101928.50;2352889;75;50085;-73
2022/10/19 04:47:53;;;;;;;;;;;;;;;20.00;69.77;101926.83;2377716;73;50444;-73
2022/10/19 04:50:54;;;;;;;;;;;;;;;19.99;70.13;101923.81;2353210;75;51575;-74
2022/10/19 04:53:57;;;;;;;;;;;;;;;19.99;69.72;101927.34;2378547;75;51516;-73
2022/10/19 04:56:58;;;;;;;;;;;;;;;19.99;69.17;101930.02;2351848;73;50236;-74
2022/10/19 05:00:00;;;;;;;;;;;;;;;20.01;69.28;101936.56;2352967;75;51205;-73
2022/10/19 05:03:01;;;;;;;;;;;;;;;20.00;69.64;101931.69;2351818;75;50666;-73
2022/10/19 05:06:03;;;;;;;;;;;;;;;19.99;69.59;101934.56;2351842;75;51546;-74
2022/10/19 05:09:05;;;;;;;;;;;;;;;19.99;69.78;101933.22;2378922;73;50372;-73
2022/10/19 05:12:06;;;;;;;;;;;;;;;19.99;70.13;101942.11;2378917;75;50725;-74
2022/10/19 05:15:08;;;;;;;;;;;;;;;19.99;70.32;101945.30;2339784;75;51628;-74
2022/10/19 05:18:10;;;;;;;;;;;;;;;19.98;69.99;101948.47;2297008;76;50401;-74
2022/10/19 05:21:12;;;;;;;;;;;;;;;19.96;69.41;101942.91;2358593;75;50389;-74
2022/10/19 05:24:13;;;;;;;;;;;;;;;19.97;70.21;101948.14;2309049;75;52616;-76
2022/10/19 05:27:15;;;;;;;;;;;;;;;19.94;69.53;101959.22;2313196;76;50332;-77
2022/10/19 05:30:16;;;;;;;;;;;;;;;19.98;70.02;101964.59;2338121;76;50355;-77
2022/10/19 05:33:18;;;;;;;;;;;;;;;19.99;69.91;101961.42;2378752;75;50745;-75
2022/10/19 05:36:21;;;;;;;;;;;;;;;19.98;69.93;101969.13;2325616;75;49496;-75
2022/10/19 05:39:23;;;;;;;;;;;;;;;19.95;69.49;101958.70;2341078;75;50664;-75
2022/10/19 05:42:24;;;;;;;;;;;;;;;19.98;69.94;101964.59;2364324;75;50203;-75
2022/10/19 05:45:26;;;;;;;;;;;;;;;19.97;69.77;101964.26;2353197;75;50310;-75
2022/10/19 05:48:31;;;;;;;;;;;;;;;19.99;70.07;101961.42;2339642;75;50087;-74
2022/10/19 05:51:31;;;;;;;;;;;;;;;19.95;69.42;101966.77;2353462;74;23181;-74
2022/10/19 05:54:32;;;;;;;;;;;;;;;19.95;69.65;101966.77;2378687;75;51568;-75
2022/10/19 05:57:34;;;;;;;;;;;;;;;19.97;69.69;101964.77;2353257;75;51465;-75
2022/10/19 06:00:35;;;;;;;;;;;;;;;20.02;69.73;101971.84;2379001;75;51480;-76
2022/10/19 06:03:37;;;;;;;;;;;;;;;19.99;69.98;101973.52;2351281;75;50345;-76
2022/10/19 06:06:38;;;;;;;;;;;;;;;20.02;69.92;101966.47;2342322;75;50580;-76
2022/10/19 06:09:40;;;;;;;;;;;;;;;20.03;69.74;101964.63;2364420;75;50789;-75
2022/10/19 06:12:42;;;;;;;;;;;;;;;20.00;69.83;101965.28;2341535;75;51880;-74
2022/10/19 06:15:43;;;;;;;;;;;;;;;19.96;69.90;101965.75;2376065;74;51543;-74
2022/10/19 06:18:45;;;;;;;;;;;;;;;19.95;69.85;101969.45;2368169;75;50660;-75
2022/10/19 06:21:46;;;;;;;;;;;;;;;19.96;69.79;101973.81;2379051;74;50752;-75
2022/10/19 06:24:48;;;;;;;;;;;;;;;19.98;69.84;101978.02;2365929;74;50939;-74
2022/10/19 06:27:50;;;;;;;;;;;;;;;19.99;69.68;101981.58;2363354;74;51526;-75
2022/10/19 06:30:51;;;;;;;;;;;;;;;19.97;69.70;101982.23;2379672;74;51571;-74
2022/10/19 06:33:53;;;;;;;;;;;;;;;19.99;70.00;101985.61;2343380;75;51582;-74
2022/10/19 06:36:55;;;;;;;;;;;;;;;20.00;69.58;101987.28;2321194;75;52485;-73
2022/10/19 06:39:56;;;;;;;;;;;;;;;19.96;69.53;101984.55;2353730;74;51452;-74
2022/10/19 06:42:58;;;;;;;;;;;;;;;19.95;69.56;101990.44;2371642;74;50293;-74
2022/10/19 06:46:01;;;;;;;;;;;;;;;19.97;69.86;101986.26;2390638;74;51592;-76
2022/10/19 06:49:03;;;;;;;;;;;;;;;19.98;69.75;101983.91;2349189;74;52562;-74
2022/10/19 06:52:07;;;;;;;;;;;;;;;19.99;69.78;101986.95;2313572;76;53247;-75
2022/10/19 06:55:09;;;;;;;;;;;;;;;19.99;69.34;101995.01;2314157;76;50455;-73
2022/10/19 06:58:10;;;;;;;;;;;;;;;19.92;65.80;101993.45;2334227;75;51467;-75
2022/10/19 07:01:12;;;;;;;;;;;;;;;19.94;67.73;101995.48;2312167;75;49559;-75
2022/10/19 07:04:14;;;;;;;;;;;;;;;19.91;67.86;102001.66;2351564;75;51526;-75
2022/10/19 07:07:16;;;;;;;;;;;;;;;19.92;67.82;102006.05;2351971;73;51589;-74
2022/10/19 07:10:17;;;;;;;;;;;;;;;19.92;67.59;102004.70;2379132;74;51524;-74
2022/10/19 07:13:19;;;;;;;;;;;;;;;19.89;67.65;101996.45;2352706;75;51608;-73
2022/10/19 07:16:20;;;;;;;;;;;;;;;19.88;67.72;102002.81;2352708;75;51437;-76
2022/10/19 07:19:24;;;;;;;;;;;;;;;19.87;67.88;102011.89;2378895;73;50632;-75
2022/10/19 07:22:25;;;;;;;;;;;;;;;19.85;67.82;102011.70;2378528;75;55669;-74
2022/10/19 07:25:27;;;;;;;;;;;;;;;19.87;67.93;102013.73;2309141;76;50982;-75
2022/10/19 07:28:29;;;;;;;;;;;;;;;19.85;67.96;102019.25;2306927;76;51582;-75
2022/10/19 07:31:30;;;;;;;;;;;;;;;19.84;68.03;102017.58;2333112;76;51468;-75
2022/10/19 07:34:32;;;;;;;;;;;;;;;19.86;68.10;102027.67;2306811;76;53522;-74
2022/10/19 07:37:33;;;;;;;;;;;;;;;19.86;67.96;102036.20;2316287;73;51679;-75
2022/10/19 07:40:35;;;;;;;;;;;;;;;19.86;68.08;102028.14;2384945;74;50393;-74
2022/10/19 07:43:37;;;;;;;;;;;;;;;19.84;68.04;102029.66;2391122;74;50412;-74
2022/10/19 07:46:38;;;;;;;;;;;;;;;19.85;68.18;102035.88;2380121;74;50776;-74
2022/10/19 07:49:40;;;;;;;;;;;;;;;19.86;68.08;102033.52;2352525;75;49510;-75
2022/10/19 07:52:42;;;;;;;;;;;;;;;19.87;68.14;102032.53;2378988;74;51571;-75
2022/10/19 07:55:43;;;;;;;;;;;;;;;19.86;65.58;102041.58;2378773;74;50361;-75
2022/10/19 07:58:45;;;;;;;;;;;;;;;19.77;63.61;102037.50;2356362;75;50239;-75
2022/10/19 08:01:47;;;;;;;;;;;;;;;19.71;62.35;102050.22;2357441;75;49419;-75
2022/10/19 08:04:49;;;;;;;;;;;;;;;19.71;61.98;102046.70;2367551;75;52528;-74
2022/10/19 08:07:50;;;;;;;;;;;;;;;19.68;62.64;102043.83;2358105;75;50060;-75
2022/10/19 08:10:52;;;;;;;;;;;;;;;19.69;63.40;102046.00;2344802;74;50413;-75
2022/10/19 08:13:54;;;;;;;;;;;;;;;19.71;64.08;102048.88;2353022;75;51247;-74
2022/10/19 08:16:55;;;;;;;;;;;;;;;19.71;63.91;102054.76;2378816;73;50706;-75
2022/10/19 08:19:57;;;;;;;;;;;;;;;19.71;64.15;102052.91;2379062;75;51547;-75
2022/10/19 08:22:59;;;;;;;;;;;;;;;19.69;64.15;102048.19;2378991;75;51587;-76
2022/10/19 08:26:00;;;;;;;;;;;;;;;19.70;64.35;102056.57;2353208;75;50131;-76
2022/10/19 08:29:02;;;;;;;;;;;;;;;19.69;64.53;102056.23;2378958;73;51521;-75
2022/10/19 08:32:04;;;;;;;;;;;;;;;19.69;64.62;102061.61;2379412;75;50262;-77
2022/10/19 08:35:05;;;;;;;;;;;;;;;19.68;64.83;102068.47;2352484;75;50455;-77
2022/10/19 08:38:07;;;;;;;;;;;;;;;19.67;64.81;102074.34;2349727;74;52441;-75
2022/10/19 08:41:22;;;;;;;;;;;;;;;19.68;64.81;102066.66;2385267;74;50081;-75
2022/10/19 08:44:28;;;;;;;;;;;;;;;19.69;65.05;102066.98;2334482;75;50195;-76
2022/10/19 08:47:48;;;;;;;;;;;;;;;19.70;65.07;102067.31;2378521;74;50955;-76
2022/10/19 08:50:50;;;;;;;;;;;;;;;19.72;65.06;102069.35;2353186;75;50157;-76
2022/10/19 08:53:53;;;;;;;;;;;;;;;19.73;65.06;102068.84;2378945;75;51527;-76
2022/10/19 08:56:56;;;;;;;;;;;;;;;19.71;65.09;102065.50;2352156;74;50535;-76
2022/10/19 09:00:16;;;;;;;;;;;;;;;19.69;65.14;102068.33;2378738;74;50291;-75
2022/10/19 09:03:28;;;;;;;;;;;;;;;19.71;65.19;102065.50;2352921;74;51371;-73
2022/10/19 09:06:50;;;;;;;;;;;;;;;19.72;65.27;102062.64;2379658;74;50395;-76
2022/10/19 09:09:56;;;;;;;;;;;;;;;19.72;65.37;102070.69;2363422;74;54724;-76
2022/10/19 09:12:59;;;;;;;;;;;;;;;19.73;65.42;102075.08;2338467;75;51425;-76
2022/10/19 09:16:01;;;;;;;;;;;;;;;19.71;65.48;102073.05;2310932;76;50973;-74
2022/10/19 09:19:03;;;;;;;;;;;;;;;19.71;65.56;102077.08;2338578;75;50808;-76
2022/10/19 09:22:09;;;;;;;;;;;;;;;19.72;65.49;102085.47;2338614;76;50453;-76
2022/10/19 09:25:16;;;;;;;;;;;;;;;19.74;65.58;102080.79;2338363;75;50506;-76
2022/10/19 09:28:22;;;;;;;;;;;;;;;19.75;65.62;102078.44;2313565;76;51034;-74
2022/10/19 09:31:25;;;;;;;;;;;;;;;19.75;65.60;102081.12;2313983;76;50993;-75
2022/10/19 09:34:35;;;;;;;;;;;;;;;19.75;65.64;102088.34;2362904;75;51445;-76
2022/10/19 09:37:36;;;;;;;;;;;;;;;19.74;65.72;102086.16;2378085;74;50526;-76
2022/10/19 09:40:38;;;;;;;;;;;;;;;19.74;65.75;102092.88;2379381;75;51460;-76
2022/10/19 09:43:42;;;;;;;;;;;;;;;19.73;65.66;102095.23;2353988;74;51456;-76
2022/10/19 09:46:51;;;;;;;;;;;;;;;19.75;65.77;102093.70;2379489;74;51572;-76
2022/10/19 09:49:54;;;;;;;;;;;;;;;19.75;65.89;102095.89;2379134;74;50330;-76
2022/10/19 09:52:56;;;;;;;;;;;;;;;19.79;65.75;102099.97;2376920;74;50426;-77
2022/10/19 09:55:59;;;;;;;;;;;;;;;19.77;65.83;102103.80;2353899;74;51048;-76
2022/10/19 09:59:00;;;;;;;;;;;;;;;19.77;66.02;102113.20;2378785;73;50758;-76
2022/10/19 10:02:18;;;;;;;;;;;;;;;19.74;66.08;102106.81;2379211;74;51503;-76
2022/10/19 10:05:19;;;;;;;;;;;;;;;19.76;66.01;102111.53;2378889;75;50280;-76
2022/10/19 10:08:22;;;;;;;;;;;;;;;19.75;66.10;102101.26;2319502;75;53417;-75
2022/10/19 10:11:25;;;;;;;;;;;;;;;19.75;65.97;102107.98;2374039;75;50745;-75
2022/10/19 10:14:27;;;;;;;;;;;;;;;19.78;66.10;102102.32;2378339;74;51023;-76
2022/10/19 10:17:30;;;;;;;;;;;;;;;19.76;66.08;102100.28;2371624;73;50775;-75
2022/10/19 10:20:32;;;;;;;;;;;;;;;19.78;66.11;102099.63;2313866;75;51860;-76
2022/10/19 10:23:35;;;;;;;;;;;;;;;19.80;66.01;102090.89;2353307;75;51468;-76
2022/10/19 10:26:40;;;;;;;;;;;;;;;19.77;66.03;102092.55;2379185;74;51547;-77
2022/10/19 10:29:43;;;;;;;;;;;;;;;19.76;66.10;102101.63;2379179;74;50664;-76
2022/10/19 10:32:46;;;;;;;;;;;;;;;19.76;66.08;102108.84;2352347;75;51930;-76
2022/10/19 10:35:52;;;;;;;;;;;;;;;19.76;66.17;102102.97;2377418;74;50792;-77
2022/10/19 10:38:53;;;;;;;;;;;;;;;19.73;66.12;102108.66;2341484;74;22370;-77
2022/10/19 10:41:55;;;;;;;;;;;;;;;19.73;65.78;102112.69;2378012;75;51506;-78
2022/10/19 10:44:56;;;;;;;;;;;;;;;19.76;65.85;102109.68;2352877;75;51102;-78
2022/10/19 10:48:00;;;;;;;;;;;;;;;19.74;65.84;102113.02;2379579;73;51419;-77
2022/10/19 10:51:01;;;;;;;;;;;;;;;19.75;66.03;102117.88;2376904;74;51708;-76
2022/10/19 10:54:19;;;;;;;;;;;;;;;19.74;65.91;102114.36;2379457;75;50338;-77
2022/10/19 10:57:22;;;;;;;;;;;;;;;19.74;66.03;102103.61;2354013;73;51067;-76
2022/10/19 11:00:24;;;;;;;;;;;;;;;19.76;65.82;102105.66;2379617;75;50435;-76
2022/10/19 11:03:27;;;;;;;;;;;;;;;19.76;65.83;102101.63;2352199;75;50748;-76
2022/10/19 11:06:29;;;;;;;;;;;;;;;19.76;65.89;102101.63;2383699;74;50763;-76
2022/10/19 11:09:38;;;;;;;;;;;;;;;19.76;65.86;102108.84;2351842;75;52338;-75
2022/10/19 11:12:41;;;;;;;;;;;;;;;19.75;65.87;102104.45;2379602;75;51455;-77
2022/10/19 11:15:50;;;;;;;;;;;;;;;19.74;65.93;102107.64;2379442;75;50406;-77
2022/10/19 11:18:54;;;;;;;;;;;;;;;19.73;65.97;102108.66;2379727;73;22320;-77
2022/10/19 11:22:10;;;;;;;;;;;;;;;19.72;65.98;102108.29;2354318;75;50154;-75
2022/10/19 11:25:16;;;;;;;;;;;;;;;19.71;65.89;102106.62;2379340;74;52381;-77
2022/10/19 11:28:19;;;;;;;;;;;;;;;19.74;65.95;102104.13;2379713;75;52513;-77
2022/10/19 11:31:22;;;;;;;;;;;;;;;19.76;65.88;102103.47;2376530;74;51442;-77
2022/10/19 11:34:28;;;;;;;;;;;;;;;19.79;65.91;102098.63;2330407;74;50976;-77
2022/10/19 11:37:38;;;;;;;;;;;;;;;19.79;65.75;102097.28;2378917;74;51444;-77
2022/10/19 11:40:44;;;;;;;;;;;;;;;19.79;65.70;102089.22;2360141;74;50973;-77
2022/10/19 11:43:50;;;;;;;;;;;;;;;19.79;65.75;102077.14;2364590;75;51654;-77
2022/10/19 11:47:12;;;;;;;;;;;;;;;19.76;65.93;102086.85;2352916;74;51329;-77
2022/10/19 11:50:15;;;;;;;;;;;;;;;19.76;66.04;102088.20;2381259;74;50393;-76
2022/10/19 11:53:31;;;;;;;;;;;;;;;19.81;65.92;102076.98;2378908;74;50448;-77
2022/10/19 11:56:37;;;;;;;;;;;;;;;19.76;65.88;102081.48;2378624;73;51572;-76
2022/10/19 11:59:40;;;;;;;;;;;;;;;19.79;66.15;102086.53;2377911;73;50434;-76
2022/10/19 12:02:49;;;;;;;;;;;;;;;19.77;66.38;102081.81;2369555;74;50469;-76
2022/10/19 12:05:53;;;;;;;;;;;;;;;19.77;66.33;102082.32;2367880;75;50813;-75
2022/10/19 12:09:11;;;;;;;;;;;;;;;19.79;66.26;102083.02;2368370;74;50677;-76
2022/10/19 12:12:29;;;;;;;;;;;;;;;19.78;66.15;102079.48;2336909;75;52600;-76
2022/10/19 12:15:33;;;;;;;;;;;;;;;19.79;66.00;102083.02;2328250;75;22742;-75
2022/10/19 12:18:38;;;;;;;;;;;;;;;19.79;65.95;102084.36;2296097;77;50796;-74
2022/10/19 12:21:42;;;;;;;;;;;;;;;19.79;66.01;102074.95;2296342;77;50376;-74
2022/10/19 12:24:43;;;;;;;;;;;;;;;19.81;66.15;102078.33;2330077;75;50120;-74
2022/10/19 12:27:46;;;;;;;;;;;;;;;19.86;65.87;102077.84;2379439;75;51566;-75
2022/10/19 12:30:48;;;;;;;;;;;;;;;19.80;66.11;102076.12;2380001;75;50327;-74
2022/10/19 12:33:54;;;;;;;;;;;;;;;19.78;66.29;102070.56;2364376;75;51440;-75
2022/10/19 12:37:04;;;;;;;;;;;;;;;19.75;66.36;102078.94;2327673;74;52608;-76
2022/10/19 12:40:10;;;;;;;;;;;;;;;19.73;66.44;102072.88;2336555;75;51565;-75
2022/10/19 12:43:13;;;;;;;;;;;;;;;19.72;66.35;102070.69;2336861;76;50492;-76
2022/10/19 12:46:19;;;;;;;;;;;;;;;19.73;66.37;102068.38;2336645;76;51537;-76
2022/10/19 12:49:32;;;;;;;;;;;;;;;19.73;66.26;102068.38;2297948;76;52711;-76
2022/10/19 12:52:43;;;;;;;;;;;;;;;19.77;66.13;102067.04;2336943;76;50405;-76
2022/10/19 12:55:45;;;;;;;;;;;;;;;19.78;66.20;102062.50;2336623;76;51624;-76
2022/10/19 12:58:48;;;;;;;;;;;;;;;19.76;66.29;102058.66;2336847;76;51560;-76
2022/10/19 13:01:50;;;;;;;;;;;;;;;19.78;66.26;102066.53;2343393;75;49608;-76
2022/10/19 13:04:52;;;;;;;;;;;;;;;19.75;66.30;102065.00;2318341;74;51421;-76
2022/10/19 13:07:53;;;;;;;;;;;;;;;19.75;66.39;102055.60;2388057;74;50314;-76
2022/10/19 13:11:06;;;;;;;;;;;;;;;19.76;66.34;102053.79;2387906;74;50322;-76
2022/10/19 13:14:12;;;;;;;;;;;;;;;19.74;66.39;102050.41;2367206;74;52706;-75
2022/10/19 13:17:32;;;;;;;;;;;;;;;19.74;66.41;102057.13;2387888;74;51581;-74
2022/10/19 13:20:41;;;;;;;;;;;;;;;19.72;66.37;102049.20;2388098;74;51526;-75
2022/10/19 13:23:44;;;;;;;;;;;;;;;19.70;66.35;102047.17;2387792;74;50794;-75
2022/10/19 13:26:45;;;;;;;;;;;;;;;19.71;66.33;102049.38;2340832;74;51714;-76
2022/10/19 13:29:47;;;;;;;;;;;;;;;19.71;66.37;102039.48;2367485;74;50355;-75
2022/10/19 13:32:49;;;;;;;;;;;;;;;19.70;66.42;102032.91;2382154;74;50371;-76
2022/10/19 13:39:21;;;;;;;;;;;;;;;19.70;66.31;102042.31;2212748;80;22604;-75
2022/10/19 13:42:23;;;;;;;;;;;;;;;19.69;66.27;102037.95;2264576;78;51517;-73
2022/10/19 13:45:25;;;;;;;;;;;;;;;19.71;66.31;102036.80;2264528;78;51498;-73
2022/10/19 13:48:30;;;;;;;;;;;;;;;19.74;66.13;102032.45;2264477;78;51696;-74
2022/10/19 13:51:36;;;;;;;;;;;;;;;19.75;66.19;102023.37;2264149;78;50951;-73
2022/10/19 13:54:49;;;;;;;;;;;;;;;19.76;66.13;102030.45;2264256;78;52317;-73
2022/10/19 13:58:15;;;;;;;;;;;;;;;19.77;66.23;102020.55;2264028;78;51531;-72
2022/10/19 14:01:24;;;;;;;;;;;;;;;19.79;66.16;102019.89;2264411;78;23016;-73
2022/10/19 14:04:45;;;;;;;;;;;;;;;19.80;66.13;102025.09;2236776;78;53117;-74
2022/10/19 14:07:54;;;;;;;;;;;;;;;19.82;66.07;102028.14;2284273;77;50533;-74
2022/10/19 14:11:00;;;;;;;;;;;;;;;19.78;66.00;102012.34;2285575;78;51622;-75
2022/10/19 14:14:12;;;;;;;;;;;;;;;19.77;66.13;102022.73;2284762;78;50806;-74
2022/10/19 14:17:15;;;;;;;;;;;;;;;19.78;66.17;102013.69;2335633;76;51346;-75
2022/10/19 14:20:24;;;;;;;;;;;;;;;19.78;66.19;102019.06;2335731;76;50302;-74
2022/10/19 14:23:27;;;;;;;;;;;;;;;19.76;66.10;102006.78;2335557;76;50833;-74
2022/10/19 14:26:29;;;;;;;;;;;;;;;19.76;66.17;102004.10;2334500;76;50797;-76
2022/10/19 14:29:33;;;;;;;;;;;;;;;19.75;66.14;102011.80;2303732;76;49688;-73
2022/10/19 14:32:34;;;;;;;;;;;;;;;19.73;66.25;102010.63;2336848;75;50459;-74
2022/10/19 14:35:37;;;;;;;;;;;;;;;19.74;66.07;102009.62;2281929;77;50554;-73
2022/10/19 14:38:42;;;;;;;;;;;;;;;19.74;66.00;102014.16;2317141;77;51525;-74
2022/10/19 14:41:43;;;;;;;;;;;;;;;19.75;66.11;102007.27;2317351;76;22322;-74
2022/10/19 14:44:44;;;;;;;;;;;;;;;19.73;65.96;102005.73;2281888;77;50777;-73
2022/10/19 14:47:56;;;;;;;;;;;;;;;19.72;66.05;102000.87;2282008;77;51485;-74
2022/10/19 14:50:58;;;;;;;;;;;;;;;19.71;66.12;102000.54;2317117;77;50302;-73
2022/10/19 14:54:10;;;;;;;;;;;;;;;19.71;65.96;102003.73;2283025;77;51828;-73
2022/10/19 14:57:14;;;;;;;;;;;;;;;19.68;66.09;102002.20;2317128;77;50777;-73
2022/10/19 15:00:20;;;;;;;;;;;;;;;19.65;66.15;102005.17;2317195;77;50322;-72
2022/10/19 15:03:22;;;;;;;;;;;;;;;19.64;66.10;102003.47;2339069;75;51382;-74
2022/10/19 15:06:25;;;;;;;;;;;;;;;19.64;66.19;101995.42;2317765;75;49667;-74
2022/10/19 15:09:31;;;;;;;;;;;;;;;19.63;66.26;101992.41;2357355;75;51616;-73
2022/10/19 15:12:39;;;;;;;;;;;;;;;19.62;66.06;101997.41;2357367;75;51612;-73
2022/10/19 15:15:41;;;;;;;;;;;;;;;19.63;66.02;102000.45;2357093;75;51534;-74
2022/10/19 15:18:42;;;;;;;;;;;;;;;19.62;66.09;101992.04;2357368;75;50442;-74
2022/10/19 15:21:44;;;;;;;;;;;;;;;19.61;66.02;101997.08;2322321;75;50387;-73
2022/10/19 15:24:56;;;;;;;;;;;;;;;19.62;66.01;101993.38;2357160;75;51513;-74
2022/10/19 15:27:58;;;;;;;;;;;;;;;19.61;66.01;101993.56;2357400;75;50326;-74
2022/10/19 15:31:00;;;;;;;;;;;;;;;19.59;65.96;102003.10;2320966;75;49580;-75
2022/10/19 15:34:01;;;;;;;;;;;;;;;19.62;66.05;102003.28;2335999;75;50692;-74
2022/10/19 15:37:03;;;;;;;;;;;;;;;19.62;66.03;102004.62;2357285;75;50397;-74
2022/10/19 15:40:21;;;;;;;;;;;;;;;19.59;66.02;102005.78;2357492;75;51540;-76
2022/10/19 15:43:25;;;;;;;;;;;;;;;19.58;66.16;102007.63;2322087;75;49854;-75
2022/10/19 15:46:29;;;;;;;;;;;;;;;19.59;65.98;102014.67;2354573;75;50433;-75